sensor_id;sensor_type;location;lat;lon;timestamp;pressure;altitude;pressure_sealevel;temperature;humidity
9415;BME280;4746;35.664;139.738;2023-03-26T00:01:38;100307.50;;;17.07;64.10
9415;BME280;4746;35.664;139.738;2023-03-26T00:04:09;100304.97;;;17.04;63.96
9415;BME280;4746;35.664;139.738;2023-03-26T00:06:38;100297.25;;;17.01;64.10
9415;BME280;4746;35.664;139.738;2023-03-26T00:09:12;100298.16;;;17.00;64.41
9415;BME280;4746;35.664;139.738;2023-03-26T00:11:42;100298.16;;;17.00;64.15
9415;BME280;4746;35.664;139.738;2023-03-26T00:14:12;100308.53;;;16.98;64.11
9415;BME280;4746;35.664;139.738;2023-03-26T00:16:44;100298.28;;;16.94;63.93
9415;BME280;4746;35.664;139.738;2023-03-26T00:19:13;100287.00;;;16.95;64.26
9415;BME280;4746;35.664;139.738;2023-03-26T00:21:41;100270.56;;;16.99;64.62
9415;BME280;4746;35.664;139.738;2023-03-26T00:24:12;100267.91;;;17.02;64.29
9415;BME280;4746;35.664;139.738;2023-03-26T00:26:44;100272.22;;;17.03;64.19
9415;BME280;4746;35.664;139.738;2023-03-26T00:29:20;100267.88;;;17.03;64.73
9415;BME280;4746;35.664;139.738;2023-03-26T00:31:53;100249.72;;;17.06;64.80
9415;BME280;4746;35.664;139.738;2023-03-26T00:34:21;100262.66;;;17.06;64.37
9415;BME280;4746;35.664;139.738;2023-03-26T00:36:48;100255.84;;;17.01;64.54
9415;BME280;4746;35.664;139.738;2023-03-26T00:39:21;100251.56;;;17.00;64.53
9415;BME280;4746;35.664;139.738;2023-03-26T00:41:51;100258.50;;;16.98;64.33
9415;BME280;4746;35.664;139.738;2023-03-26T00:44:20;100259.41;;;16.95;64.66
9415;BME280;4746;35.664;139.738;2023-03-26T00:46:48;100244.91;;;16.87;64.30
9415;BME280;4746;35.664;139.738;2023-03-26T00:49:16;100248.41;;;16.83;64.62
9415;BME280;4746;35.664;139.738;2023-03-26T00:51:43;100246.72;;;16.82;64.89
9415;BME280;4746;35.664;139.738;2023-03-26T00:54:11;100237.16;;;16.84;64.56
9415;BME280;4746;35.664;139.738;2023-03-26T00:56:38;100246.66;;;16.85;64.95
9415;BME280;4746;35.664;139.738;2023-03-26T00:59:06;100243.13;;;16.89;65.06
9415;BME280;4746;35.664;139.738;2023-03-26T01:01:35;100228.38;;;16.92;65.08
9415;BME280;4746;35.664;139.738;2023-03-26T01:04:33;100205.13;;;16.91;64.70
9415;BME280;4746;35.664;139.738;2023-03-26T01:07:28;100221.56;;;16.88;64.45
9415;BME280;4746;35.664;139.738;2023-03-26T01:09:59;100218.28;;;16.79;65.09
9415;BME280;4746;35.664;139.738;2023-03-26T01:12:30;100217.44;;;16.78;64.99
9415;BME280;4746;35.664;139.738;2023-03-26T01:15:00;100201.94;;;16.78;65.36
9415;BME280;4746;35.664;139.738;2023-03-26T01:17:30;100208.00;;;16.74;65.48
9415;BME280;4746;35.664;139.738;2023-03-26T01:20:24;100199.31;;;16.80;65.37
9415;BME280;4746;35.664;139.738;2023-03-26T01:23:02;100210.53;;;16.79;65.62
9415;BME280;4746;35.664;139.738;2023-03-26T01:25:43;100199.38;;;16.77;65.49
9415;BME280;4746;35.664;139.738;2023-03-26T01:28:12;100189.09;;;16.72;65.47
9415;BME280;4746;35.664;139.738;2023-03-26T01:31:24;100175.09;;;16.82;65.19
9415;BME280;4746;35.664;139.738;2023-03-26T01:34:16;100173.28;;;16.87;65.45
9415;BME280;4746;35.664;139.738;2023-03-26T01:43:26;100155.69;;;17.04;64.93
9415;BME280;4746;35.664;139.738;2023-03-26T01:45:59;100146.31;;;16.99;65.08
9415;BME280;4746;35.664;139.738;2023-03-26T01:48:38;100148.88;;;17.00;65.26
9415;BME280;4746;35.664;139.738;2023-03-26T01:51:10;100141.19;;;16.96;65.17
9415;BME280;4746;35.664;139.738;2023-03-26T01:53:45;100153.16;;;17.01;64.88
9415;BME280;4746;35.664;139.738;2023-03-26T01:56:35;100144.47;;;17.04;64.79
9415;BME280;4746;35.664;139.738;2023-03-26T02:10:56;100122.94;;;17.02;65.37
9415;BME280;4746;35.664;139.738;2023-03-26T02:13:26;100125.56;;;17.00;65.28
9415;BME280;4746;35.664;139.738;2023-03-26T02:16:02;100115.13;;;17.03;64.84
9415;BME280;4746;35.664;139.738;2023-03-26T02:18:30;100093.72;;;16.97;64.83
9415;BME280;4746;35.664;139.738;2023-03-26T02:21:14;100085.03;;;16.99;65.12
9415;BME280;4746;35.664;139.738;2023-03-26T02:23:49;100086.81;;;16.97;65.09
9415;BME280;4746;35.664;139.738;2023-03-26T02:26:24;100086.78;;;16.99;65.24
9415;BME280;4746;35.664;139.738;2023-03-26T02:28:51;100083.31;;;17.00;65.26
9415;BME280;4746;35.664;139.738;2023-03-26T02:31:19;100085.78;;;17.06;65.22
9415;BME280;4746;35.664;139.738;2023-03-26T02:33:47;100074.53;;;17.05;65.00
9415;BME280;4746;35.664;139.738;2023-03-26T02:36:15;100078.06;;;17.03;65.24
9415;BME280;4746;35.664;139.738;2023-03-26T02:38:45;100070.28;;;17.03;65.52
9415;BME280;4746;35.664;139.738;2023-03-26T02:41:12;100061.69;;;17.01;65.42
9415;BME280;4746;35.664;139.738;2023-03-26T02:43:40;100060.00;;;17.00;65.49
9415;BME280;4746;35.664;139.738;2023-03-26T02:46:07;100055.63;;;17.02;65.23
9415;BME280;4746;35.664;139.738;2023-03-26T02:48:35;100047.88;;;17.02;65.11
9415;BME280;4746;35.664;139.738;2023-03-26T02:51:03;100040.19;;;16.99;65.09
9415;BME280;4746;35.664;139.738;2023-03-26T02:53:33;100018.59;;;16.98;65.04
9415;BME280;4746;35.664;139.738;2023-03-26T02:56:03;100019.44;;;17.00;65.01
9415;BME280;4746;35.664;139.738;2023-03-26T02:58:31;100001.22;;;17.05;65.06
9415;BME280;4746;35.664;139.738;2023-03-26T03:00:59;99998.50;;;17.09;65.15
9415;BME280;4746;35.664;139.738;2023-03-26T03:03:28;99990.72;;;17.11;65.06
9415;BME280;4746;35.664;139.738;2023-03-26T03:05:57;99983.72;;;17.16;65.00
9415;BME280;4746;35.664;139.738;2023-03-26T03:08:27;99975.75;;;17.23;65.22
9415;BME280;4746;35.664;139.738;2023-03-26T03:11:06;99976.47;;;17.31;64.95
9415;BME280;4746;35.664;139.738;2023-03-26T03:13:35;99969.38;;;17.38;64.21
9415;BME280;4746;35.664;139.738;2023-03-26T03:16:04;99958.81;;;17.46;64.76
9415;BME280;4746;35.664;139.738;2023-03-26T03:18:32;99948.25;;;17.54;64.46
9415;BME280;4746;35.664;139.738;2023-03-26T03:21:00;99931.69;;;17.59;64.23
9415;BME280;4746;35.664;139.738;2023-03-26T03:23:31;99925.56;;;17.63;64.28
9415;BME280;4746;35.664;139.738;2023-03-26T03:25:58;99921.94;;;17.70;64.39
9415;BME280;4746;35.664;139.738;2023-03-26T03:28:26;99936.50;;;17.74;64.28
9415;BME280;4746;35.664;139.738;2023-03-26T03:30:56;99928.63;;;17.77;64.16
9415;BME280;4746;35.664;139.738;2023-03-26T03:33:24;99927.84;;;17.75;63.84
9415;BME280;4746;35.664;139.738;2023-03-26T03:35:52;99920.06;;;17.75;63.92
9415;BME280;4746;35.664;139.738;2023-03-26T03:38:19;99907.09;;;17.75;63.69
9415;BME280;4746;35.664;139.738;2023-03-26T03:40:47;99866.44;;;17.77;63.75
9415;BME280;4746;35.664;139.738;2023-03-26T03:43:15;99833.59;;;17.78;63.53
9415;BME280;4746;35.664;139.738;2023-03-26T03:45:42;99829.97;;;17.83;63.25
9415;BME280;4746;35.664;139.738;2023-03-26T03:48:10;99833.44;;;17.82;63.35
9415;BME280;4746;35.664;139.738;2023-03-26T03:50:37;99826.66;;;17.78;63.05
9415;BME280;4746;35.664;139.738;2023-03-26T03:53:05;99824.88;;;17.80;63.38
9415;BME280;4746;35.664;139.738;2023-03-26T03:55:32;99814.69;;;17.74;63.18
9415;BME280;4746;35.664;139.738;2023-03-26T03:58:04;99797.53;;;17.70;63.24
9415;BME280;4746;35.664;139.738;2023-03-26T04:00:35;99809.69;;;17.68;63.58
9415;BME280;4746;35.664;139.738;2023-03-26T04:03:07;99808.09;;;17.64;63.46
9415;BME280;4746;35.664;139.738;2023-03-26T04:05:35;99800.38;;;17.61;63.58
9415;BME280;4746;35.664;139.738;2023-03-26T04:08:03;99795.28;;;17.58;63.84
9415;BME280;4746;35.664;139.738;2023-03-26T04:10:30;99785.94;;;17.53;63.93
9415;BME280;4746;35.664;139.738;2023-03-26T04:12:58;99786.03;;;17.50;63.95
9415;BME280;4746;35.664;139.738;2023-03-26T04:15:25;99758.28;;;17.53;64.29
9415;BME280;4746;35.664;139.738;2023-03-26T04:17:53;99737.38;;;17.59;64.14
9415;BME280;4746;35.664;139.738;2023-03-26T04:20:20;99741.63;;;17.62;64.04
9415;BME280;4746;35.664;139.738;2023-03-26T04:22:48;99734.78;;;17.59;64.29
9415;BME280;4746;35.664;139.738;2023-03-26T04:25:16;99736.50;;;17.60;64.27
9415;BME280;4746;35.664;139.738;2023-03-26T04:27:44;99742.56;;;17.59;64.60
9415;BME280;4746;35.664;139.738;2023-03-26T04:30:17;99735.66;;;17.60;64.36
9415;BME280;4746;35.664;139.738;2023-03-26T04:32:46;99731.44;;;17.56;64.80
9415;BME280;4746;35.664;139.738;2023-03-26T04:35:16;99730.69;;;17.52;64.75
9415;BME280;4746;35.664;139.738;2023-03-26T04:37:45;99724.75;;;17.49;64.94
9415;BME280;4746;35.664;139.738;2023-03-26T04:40:19;99730.78;;;17.49;65.03
9415;BME280;4746;35.664;139.738;2023-03-26T04:42:48;99707.56;;;17.46;65.09
9415;BME280;4746;35.664;139.738;2023-03-26T04:45:18;99688.38;;;17.52;65.31
9415;BME280;4746;35.664;139.738;2023-03-26T04:47:49;99692.56;;;17.57;65.31
9415;BME280;4746;35.664;139.738;2023-03-26T04:50:16;99686.31;;;17.63;65.44
9415;BME280;4746;35.664;139.738;2023-03-26T04:52:44;99669.66;;;17.71;65.40
9415;BME280;4746;35.664;139.738;2023-03-26T04:57:58;99653.72;;;17.83;65.18
9415;BME280;4746;35.664;139.738;2023-03-26T05:00:29;99649.44;;;17.82;65.00
9415;BME280;4746;35.664;139.738;2023-03-26T05:02:57;99627.06;;;17.80;64.87
9415;BME280;4746;35.664;139.738;2023-03-26T05:05:28;99622.63;;;17.83;65.23
9415;BME280;4746;35.664;139.738;2023-03-26T05:07:56;99612.22;;;17.85;65.03
9415;BME280;4746;35.664;139.738;2023-03-26T05:10:23;99608.78;;;17.84;65.00
9415;BME280;4746;35.664;139.738;2023-03-26T05:12:51;99606.31;;;17.80;65.37
9415;BME280;4746;35.664;139.738;2023-03-26T05:15:19;99602.91;;;17.79;65.23
9415;BME280;4746;35.664;139.738;2023-03-26T05:17:46;99604.69;;;17.77;64.86
9415;BME280;4746;35.664;139.738;2023-03-26T05:20:26;99605.69;;;17.73;64.72
9415;BME280;4746;35.664;139.738;2023-03-26T05:22:56;99585.28;;;17.63;64.70
9415;BME280;4746;35.664;139.738;2023-03-26T05:25:23;99586.28;;;17.59;64.99
9415;BME280;4746;35.664;139.738;2023-03-26T05:27:51;99607.06;;;17.57;65.07
9415;BME280;4746;35.664;139.738;2023-03-26T05:30:21;99595.75;;;17.60;65.07
9415;BME280;4746;35.664;139.738;2023-03-26T05:32:49;99575.16;;;17.55;65.55
9415;BME280;4746;35.664;139.738;2023-03-26T05:35:18;99575.97;;;17.57;65.42
9415;BME280;4746;35.664;139.738;2023-03-26T05:37:47;99578.56;;;17.57;65.41
9415;BME280;4746;35.664;139.738;2023-03-26T05:40:15;99577.63;;;17.60;65.24
9415;BME280;4746;35.664;139.738;2023-03-26T05:42:44;99564.72;;;17.58;65.54
9415;BME280;4746;35.664;139.738;2023-03-26T05:45:13;99538.69;;;17.61;65.37
9415;BME280;4746;35.664;139.738;2023-03-26T05:47:42;99536.16;;;17.60;65.62
9415;BME280;4746;35.664;139.738;2023-03-26T05:50:10;99546.66;;;17.55;65.72
9415;BME280;4746;35.664;139.738;2023-03-26T05:52:38;99542.47;;;17.51;65.58
9415;BME280;4746;35.664;139.738;2023-03-26T05:55:06;99539.97;;;17.48;66.23
9415;BME280;4746;35.664;139.738;2023-03-26T05:57:34;99531.44;;;17.45;66.19
9415;BME280;4746;35.664;139.738;2023-03-26T06:00:04;99532.31;;;17.45;66.35
9415;BME280;4746;35.664;139.738;2023-03-26T06:02:37;99540.22;;;17.41;66.22
9415;BME280;4746;35.664;139.738;2023-03-26T06:05:05;99553.16;;;17.41;66.36
9415;BME280;4746;35.664;139.738;2023-03-26T06:07:33;99548.03;;;17.40;66.19
9415;BME280;4746;35.664;139.738;2023-03-26T06:10:01;99529.91;;;17.40;66.34
9415;BME280;4746;35.664;139.738;2023-03-26T06:12:28;99515.16;;;17.41;66.67
9415;BME280;4746;35.664;139.738;2023-03-26T06:14:56;99508.94;;;17.47;66.44
9415;BME280;4746;35.664;139.738;2023-03-26T06:17:23;99485.63;;;17.47;66.34
9415;BME280;4746;35.664;139.738;2023-03-26T06:19:51;99481.34;;;17.46;66.57
9415;BME280;4746;35.664;139.738;2023-03-26T06:22:19;99480.50;;;17.45;66.35
9415;BME280;4746;35.664;139.738;2023-03-26T06:24:46;99463.28;;;17.44;66.58
9415;BME280;4746;35.664;139.738;2023-03-26T06:27:14;99455.38;;;17.49;66.39
9415;BME280;4746;35.664;139.738;2023-03-26T06:29:41;99459.47;;;17.54;66.41
9415;BME280;4746;35.664;139.738;2023-03-26T06:32:09;99462.13;;;17.53;66.39
9415;BME280;4746;35.664;139.738;2023-03-26T06:34:36;99459.41;;;17.57;66.54
9415;BME280;4746;35.664;139.738;2023-03-26T06:37:04;99456.13;;;17.52;66.65
9415;BME280;4746;35.664;139.738;2023-03-26T06:39:31;99459.78;;;17.45;66.76
9415;BME280;4746;35.664;139.738;2023-03-26T06:41:59;99470.22;;;17.42;67.01
9415;BME280;4746;35.664;139.738;2023-03-26T06:44:26;99472.88;;;17.41;67.04
9415;BME280;4746;35.664;139.738;2023-03-26T06:46:54;99460.94;;;17.37;66.90
9415;BME280;4746;35.664;139.738;2023-03-26T06:49:22;99441.25;;;17.32;66.81
9415;BME280;4746;35.664;139.738;2023-03-26T06:51:49;99448.13;;;17.33;66.37
9415;BME280;4746;35.664;139.738;2023-03-26T06:54:17;99448.41;;;17.24;66.40
9415;BME280;4746;35.664;139.738;2023-03-26T06:56:44;99439.13;;;17.17;66.64
9415;BME280;4746;35.664;139.738;2023-03-26T06:59:12;99446.97;;;17.14;66.76
9415;BME280;4746;35.664;139.738;2023-03-26T07:01:39;99441.94;;;17.09;66.35
9415;BME280;4746;35.664;139.738;2023-03-26T07:04:07;99440.34;;;17.05;66.76
9415;BME280;4746;35.664;139.738;2023-03-26T07:06:34;99449.91;;;17.03;66.96
9415;BME280;4746;35.664;139.738;2023-03-26T07:09:03;99428.34;;;17.03;66.70
9415;BME280;4746;35.664;139.738;2023-03-26T07:11:31;99429.16;;;17.05;67.23
9415;BME280;4746;35.664;139.738;2023-03-26T07:13:58;99411.75;;;17.10;66.85
9415;BME280;4746;35.664;139.738;2023-03-26T07:16:26;99407.19;;;17.16;66.77
9415;BME280;4746;35.664;139.738;2023-03-26T07:18:54;99412.34;;;17.18;66.94
9415;BME280;4746;35.664;139.738;2023-03-26T07:21:22;99403.59;;;17.22;66.68
9415;BME280;4746;35.664;139.738;2023-03-26T07:23:50;99390.53;;;17.25;66.88
9415;BME280;4746;35.664;139.738;2023-03-26T07:26:37;99380.94;;;17.28;66.85
9415;BME280;4746;35.664;139.738;2023-03-26T07:29:21;99401.06;;;17.19;66.98
9415;BME280;4746;35.664;139.738;2023-03-26T07:32:56;99366.47;;;17.21;66.82
9415;BME280;4746;35.664;139.738;2023-03-26T07:35:54;99352.63;;;17.22;66.77
9415;BME280;4746;35.664;139.738;2023-03-26T07:42:22;99355.84;;;17.30;66.91
9415;BME280;4746;35.664;139.738;2023-03-26T07:45:40;99363.44;;;17.36;66.89
9415;BME280;4746;35.664;139.738;2023-03-26T07:48:24;99363.28;;;17.41;66.85
9415;BME280;4746;35.664;139.738;2023-03-26T07:50:56;99362.53;;;17.37;66.91
9415;BME280;4746;35.664;139.738;2023-03-26T07:53:26;99355.59;;;17.38;67.20
9415;BME280;4746;35.664;139.738;2023-03-26T07:56:16;99352.81;;;17.43;67.06
9415;BME280;4746;35.664;139.738;2023-03-26T08:05:33;99342.44;;;17.43;66.65
9415;BME280;4746;35.664;139.738;2023-03-26T08:14:28;99302.63;;;17.46;66.61
9415;BME280;4746;35.664;139.738;2023-03-26T08:17:30;99316.66;;;17.41;66.45
9415;BME280;4746;35.664;139.738;2023-03-26T08:20:45;99318.38;;;17.40;66.65
9415;BME280;4746;35.664;139.738;2023-03-26T08:23:54;99321.88;;;17.39;66.74
9415;BME280;4746;35.664;139.738;2023-03-26T08:29:36;99297.00;;;17.35;67.13
9415;BME280;4746;35.664;139.738;2023-03-26T08:32:19;99311.69;;;17.35;67.31
9415;BME280;4746;35.664;139.738;2023-03-26T08:34:46;99313.47;;;17.33;67.50
9415;BME280;4746;35.664;139.738;2023-03-26T08:37:14;99308.38;;;17.30;67.50
9415;BME280;4746;35.664;139.738;2023-03-26T08:39:42;99307.50;;;17.31;67.49
9415;BME280;4746;35.664;139.738;2023-03-26T08:45:55;99301.13;;;17.41;67.11
9415;BME280;4746;35.664;139.738;2023-03-26T09:04:28;99313.56;;;17.30;67.46
9415;BME280;4746;35.664;139.738;2023-03-26T09:48:28;99297.25;;;17.28;67.65
9415;BME280;4746;35.664;139.738;2023-03-26T09:52:01;99300.75;;;17.27;67.80
9415;BME280;4746;35.664;139.738;2023-03-26T09:54:33;99303.13;;;17.33;67.57
9415;BME280;4746;35.664;139.738;2023-03-26T10:06:51;99315.66;;;17.44;67.53
9415;BME280;4746;35.664;139.738;2023-03-26T10:12:57;99329.22;;;17.51;67.35
9415;BME280;4746;35.664;139.738;2023-03-26T10:24:57;99341.59;;;17.67;66.74
9415;BME280;4746;35.664;139.738;2023-03-26T10:40:15;99312.13;;;17.93;66.21
9415;BME280;4746;35.664;139.738;2023-03-26T10:52:05;99362.59;;;18.07;65.00
9415;BME280;4746;35.664;139.738;2023-03-26T10:55:17;99381.53;;;18.09;64.87
9415;BME280;4746;35.664;139.738;2023-03-26T10:58:35;99371.16;;;18.09;65.06
9415;BME280;4746;35.664;139.738;2023-03-26T11:01:11;99372.72;;;18.13;64.58
9415;BME280;4746;35.664;139.738;2023-03-26T11:03:55;99394.28;;;18.15;64.87
9415;BME280;4746;35.664;139.738;2023-03-26T11:09:36;99401.63;;;18.27;64.49
9415;BME280;4746;35.664;139.738;2023-03-26T11:21:17;99391.13;;;18.53;63.49
9415;BME280;4746;35.664;139.738;2023-03-26T11:33:16;99392.91;;;18.74;62.56
9415;BME280;4746;35.664;139.738;2023-03-26T11:35:50;99385.78;;;18.79;62.13
9415;BME280;4746;35.664;139.738;2023-03-26T11:38:45;99374.59;;;18.77;62.21
9415;BME280;4746;35.664;139.738;2023-03-26T11:41:24;99386.38;;;18.85;61.91
9415;BME280;4746;35.664;139.738;2023-03-26T11:44:28;99386.88;;;18.94;61.58
9415;BME280;4746;35.664;139.738;2023-03-26T11:47:02;99379.94;;;18.95;61.42
9415;BME280;4746;35.664;139.738;2023-03-26T11:49:32;99383.31;;;18.97;61.25
9415;BME280;4746;35.664;139.738;2023-03-26T11:52:00;99378.72;;;19.03;60.91
9415;BME280;4746;35.664;139.738;2023-03-26T11:54:28;99371.69;;;19.05;60.36
9415;BME280;4746;35.664;139.738;2023-03-26T11:57:09;99366.00;;;19.19;60.41
9415;BME280;4746;35.664;139.738;2023-03-26T12:00:11;99349.19;;;19.27;59.91
9415;BME280;4746;35.664;139.738;2023-03-26T12:02:45;99338.66;;;19.30;60.12
9415;BME280;4746;35.664;139.738;2023-03-26T12:05:25;99345.28;;;19.37;59.83
9415;BME280;4746;35.664;139.738;2023-03-26T12:08:02;99347.25;;;19.32;59.74
9415;BME280;4746;35.664;139.738;2023-03-26T12:10:37;99368.13;;;19.29;59.55
9415;BME280;4746;35.664;139.738;2023-03-26T12:13:44;99373.31;;;19.29;59.79
9415;BME280;4746;35.664;139.738;2023-03-26T12:16:19;99375.41;;;19.21;59.92
9415;BME280;4746;35.664;139.738;2023-03-26T12:19:01;99368.59;;;19.19;59.83
9415;BME280;4746;35.664;139.738;2023-03-26T12:21:52;99359.13;;;19.18;60.13
9415;BME280;4746;35.664;139.738;2023-03-26T12:24:34;99366.97;;;19.16;60.02
9415;BME280;4746;35.664;139.738;2023-03-26T12:27:24;99354.00;;;19.16;60.14
9415;BME280;4746;35.664;139.738;2023-03-26T12:32:49;99330.78;;;19.12;59.84
9415;BME280;4746;35.664;139.738;2023-03-26T12:35:24;99342.09;;;19.11;59.83
9415;BME280;4746;35.664;139.738;2023-03-26T12:41:13;99343.44;;;18.98;59.92
9415;BME280;4746;35.664;139.738;2023-03-26T12:43:52;99346.78;;;19.01;59.89
9415;BME280;4746;35.664;139.738;2023-03-26T12:46:32;99346.84;;;19.00;59.78
9415;BME280;4746;35.664;139.738;2023-03-26T12:49:09;99348.00;;;18.93;59.95
9415;BME280;4746;35.664;139.738;2023-03-26T12:55:17;99377.63;;;18.87;60.03
9415;BME280;4746;35.664;139.738;2023-03-26T12:57:53;99389.34;;;18.76;60.11
9415;BME280;4746;35.664;139.738;2023-03-26T13:06:54;99403.03;;;18.58;60.50
9415;BME280;4746;35.664;139.738;2023-03-26T13:15:39;99420.16;;;18.62;61.07
9415;BME280;4746;35.664;139.738;2023-03-26T13:48:56;99427.06;;;18.63;61.82
9415;BME280;4746;35.664;139.738;2023-03-26T13:51:30;99431.50;;;18.60;61.86
9415;BME280;4746;35.664;139.738;2023-03-26T13:57:00;99428.06;;;18.59;62.19
9415;BME280;4746;35.664;139.738;2023-03-26T14:00:26;99434.91;;;18.62;61.99
9415;BME280;4746;35.664;139.738;2023-03-26T14:03:49;99434.16;;;18.58;61.96
9415;BME280;4746;35.664;139.738;2023-03-26T14:12:45;99426.44;;;18.57;61.96
9415;BME280;4746;35.664;139.738;2023-03-26T14:18:55;99449.00;;;18.55;61.47
9415;BME280;4746;35.664;139.738;2023-03-26T14:33:29;99427.00;;;18.42;61.52
9415;BME280;4746;35.664;139.738;2023-03-26T14:36:24;99435.81;;;18.38;61.38
9415;BME280;4746;35.664;139.738;2023-03-26T14:42:42;99429.06;;;18.34;60.85
9415;BME280;4746;35.664;139.738;2023-03-26T14:45:48;99420.47;;;18.32;60.62
9415;BME280;4746;35.664;139.738;2023-03-26T14:53:49;99458.78;;;18.24;59.70
9415;BME280;4746;35.664;139.738;2023-03-26T15:17:56;99503.81;;;17.97;55.87
9415;BME280;4746;35.664;139.738;2023-03-26T15:44:40;99522.88;;;17.70;52.12
9415;BME280;4746;35.664;139.738;2023-03-26T15:47:41;99524.47;;;17.74;51.69
9415;BME280;4746;35.664;139.738;2023-03-26T15:56:25;99564.53;;;17.64;50.91
9415;BME280;4746;35.664;139.738;2023-03-26T15:59:27;99563.53;;;17.68;50.65
9415;BME280;4746;35.664;139.738;2023-03-26T16:04:55;99561.00;;;17.65;49.98
9415;BME280;4746;35.664;139.738;2023-03-26T16:08:24;99563.59;;;17.65;50.20
9415;BME280;4746;35.664;139.738;2023-03-26T16:10:59;99580.97;;;17.63;49.72
9415;BME280;4746;35.664;139.738;2023-03-26T16:13:49;99564.53;;;17.64;49.62
9415;BME280;4746;35.664;139.738;2023-03-26T16:16:53;99549.75;;;17.66;49.31
9415;BME280;4746;35.664;139.738;2023-03-26T16:22:03;99569.59;;;17.67;48.38
9415;BME280;4746;35.664;139.738;2023-03-26T16:24:40;99555.00;;;17.65;48.91
9415;BME280;4746;35.664;139.738;2023-03-26T16:32:34;99593.91;;;17.63;48.31
9415;BME280;4746;35.664;139.738;2023-03-26T16:37:46;99587.91;;;17.61;47.59
9415;BME280;4746;35.664;139.738;2023-03-26T16:40:26;99623.34;;;17.61;47.37
9415;BME280;4746;35.664;139.738;2023-03-26T16:46:25;99609.53;;;17.60;47.04
9415;BME280;4746;35.664;139.738;2023-03-26T16:54:40;99612.44;;;17.51;46.64
9415;BME280;4746;35.664;139.738;2023-03-26T16:57:26;99639.28;;;17.47;45.64
9415;BME280;4746;35.664;139.738;2023-03-26T17:05:56;99649.94;;;17.39;45.63
9415;BME280;4746;35.664;139.738;2023-03-26T17:09:01;99646.53;;;17.37;45.79
9415;BME280;4746;35.664;139.738;2023-03-26T17:14:52;99676.00;;;17.33;45.54
9415;BME280;4746;35.664;139.738;2023-03-26T17:17:54;99679.50;;;17.32;45.54
9415;BME280;4746;35.664;139.738;2023-03-26T17:21:08;99677.88;;;17.28;45.26
9415;BME280;4746;35.664;139.738;2023-03-26T17:26:58;99689.22;;;17.22;45.20
9415;BME280;4746;35.664;139.738;2023-03-26T17:30:25;99659.09;;;17.20;44.93
9415;BME280;4746;35.664;139.738;2023-03-26T17:35:46;99705.97;;;17.11;44.58
9415;BME280;4746;35.664;139.738;2023-03-26T17:40:56;99725.84;;;17.09;44.50
9415;BME280;4746;35.664;139.738;2023-03-26T17:46:50;99719.91;;;17.05;44.27
9415;BME280;4746;35.664;139.738;2023-03-26T17:49:27;99720.06;;;16.99;44.31
9415;BME280;4746;35.664;139.738;2023-03-26T17:52:56;99741.59;;;17.01;43.95
9415;BME280;4746;35.664;139.738;2023-03-26T17:55:36;99754.66;;;16.97;43.72
9415;BME280;4746;35.664;139.738;2023-03-26T17:58:29;99756.47;;;16.93;43.78
9415;BME280;4746;35.664;139.738;2023-03-26T18:03:54;99762.56;;;16.91;43.37
9415;BME280;4746;35.664;139.738;2023-03-26T18:16:05;99784.34;;;16.82;42.77
9415;BME280;4746;35.664;139.738;2023-03-26T18:18:59;99783.53;;;16.80;42.78
9415;BME280;4746;35.664;139.738;2023-03-26T18:21:38;99789.63;;;16.78;42.34
9415;BME280;4746;35.664;139.738;2023-03-26T18:24:13;99805.19;;;16.76;42.45
9415;BME280;4746;35.664;139.738;2023-03-26T18:26:48;99803.53;;;16.74;42.57
9415;BME280;4746;35.664;139.738;2023-03-26T18:29:30;99789.72;;;16.75;42.06
9415;BME280;4746;35.664;139.738;2023-03-26T18:34:46;99799.28;;;16.71;41.90
9415;BME280;4746;35.664;139.738;2023-03-26T18:37:32;99810.56;;;16.69;41.79
9415;BME280;4746;35.664;139.738;2023-03-26T18:40:16;99816.66;;;16.67;41.66
9415;BME280;4746;35.664;139.738;2023-03-26T18:43:00;99832.22;;;16.65;41.55
9415;BME280;4746;35.664;139.738;2023-03-26T18:45:39;99783.03;;;16.67;41.19
9415;BME280;4746;35.664;139.738;2023-03-26T18:50:55;99824.47;;;16.65;40.82
9415;BME280;4746;35.664;139.738;2023-03-26T18:53:30;99818.53;;;16.62;40.62
9415;BME280;4746;35.664;139.738;2023-03-26T18:56:01;99841.81;;;16.60;40.09
9415;BME280;4746;35.664;139.738;2023-03-26T18:59:01;99853.94;;;16.58;40.35
9415;BME280;4746;35.664;139.738;2023-03-26T19:01:36;99851.38;;;16.57;39.83
9415;BME280;4746;35.664;139.738;2023-03-26T19:04:07;99847.13;;;16.54;40.23
9415;BME280;4746;35.664;139.738;2023-03-26T19:06:40;99860.97;;;16.53;39.83
9415;BME280;4746;35.664;139.738;2023-03-26T19:09:10;99874.78;;;16.52;39.53
9415;BME280;4746;35.664;139.738;2023-03-26T19:11:40;99848.91;;;16.52;39.71
9415;BME280;4746;35.664;139.738;2023-03-26T19:14:18;99867.81;;;16.54;39.65
9415;BME280;4746;35.664;139.738;2023-03-26T19:17:02;99879.94;;;16.52;39.66
9415;BME280;4746;35.664;139.738;2023-03-26T19:19:35;99898.09;;;16.51;39.72
9415;BME280;4746;35.664;139.738;2023-03-26T19:22:10;99881.72;;;16.50;39.34
9415;BME280;4746;35.664;139.738;2023-03-26T19:24:39;99886.91;;;16.49;39.37
9415;BME280;4746;35.664;139.738;2023-03-26T19:27:09;99883.47;;;16.48;39.39
9415;BME280;4746;35.664;139.738;2023-03-26T19:29:37;99906.75;;;16.48;39.17
9415;BME280;4746;35.664;139.738;2023-03-26T19:32:26;99917.03;;;16.51;39.18
9415;BME280;4746;35.664;139.738;2023-03-26T19:34:58;99905.06;;;16.47;39.04
9415;BME280;4746;35.664;139.738;2023-03-26T19:37:30;99925.75;;;16.47;39.10
9415;BME280;4746;35.664;139.738;2023-03-26T19:40:16;99930.00;;;16.50;39.29
9415;BME280;4746;35.664;139.738;2023-03-26T19:42:45;99906.81;;;16.45;39.20
9415;BME280;4746;35.664;139.738;2023-03-26T19:45:21;99943.84;;;16.47;39.23
9415;BME280;4746;35.664;139.738;2023-03-26T19:47:52;99944.75;;;16.46;38.95
9415;BME280;4746;35.664;139.738;2023-03-26T19:53:21;99964.56;;;16.47;38.99
9415;BME280;4746;35.664;139.738;2023-03-26T19:58:27;99949.16;;;16.41;38.71